Time;durP1;ratioP1;P1;durP2;ratioP2;P2;SDS_P1;SDS_P2;PMS_P1;PMS_P2;Temp;Humidity;BMP_temperature;BMP_pressure;BME280_temperature;BME280_humidity;BME280_pressure;Samples;Min_cycle;Max_cycle;Signal;HPM_P1;HPM_P2
2024/04/09 00:01:45;;;;;;;0.85;0.38;;;10.90;23.10;;;;;;5369362;26;20354;-80
2024/04/09 00:04:12;;;;;;;0.47;0.32;;;10.90;23.60;;;;;;5340068;26;20008;-81
2024/04/09 00:06:40;;;;;;;0.20;0.20;;;10.90;17.10;;;;;;5340409;26;20479;-80
2024/04/09 00:09:11;;;;;;;0.93;0.38;;;10.90;16.20;;;;;;5367317;26;20360;-79
2024/04/09 00:11:38;;;;;;;0.70;0.30;;;10.90;17.90;;;;;;5369801;26;20070;-79
2024/04/09 00:14:05;;;;;;;1.13;0.70;;;10.80;16.10;;;;;;5371782;26;20451;-79
2024/04/09 00:16:33;;;;;;;0.93;0.30;;;10.70;12.10;;;;;;5366682;26;20016;-79
2024/04/09 00:19:01;;;;;;;0.82;0.40;;;10.70;3.60;;;;;;5366806;26;20018;-80
2024/04/09 00:21:29;;;;;;;1.63;0.47;;;10.60;1.00;;;;;;5365520;26;20001;-80
2024/04/09 00:23:58;;;;;;;1.52;0.60;;;10.60;1.00;;;;;;5367640;26;20038;-80
2024/04/09 00:26:26;;;;;;;0.85;0.40;;;10.60;1.00;;;;;;5367154;26;20019;-80
2024/04/09 00:28:53;;;;;;;3.00;0.63;;;10.50;1.00;;;;;;5368377;26;20074;-80
2024/04/09 00:31:21;;;;;;;0.88;0.40;;;10.60;1.00;;;;;;5371224;26;20004;-79
2024/04/09 00:33:49;;;;;;;1.25;0.60;;;10.60;1.00;;;;;;5371823;26;20009;-79
2024/04/09 00:36:17;;;;;;;1.15;0.30;;;10.60;1.00;;;;;;5371941;26;20008;-80
2024/04/09 00:38:47;;;;;;;1.02;0.40;;;10.60;1.00;;;;;;5368451;26;20018;-80
2024/04/09 00:41:15;;;;;;;1.25;0.38;;;10.60;1.00;;;;;;5367306;26;20529;-81
2024/04/09 00:43:43;;;;;;;0.52;0.28;;;10.50;1.00;;;;;;5339230;26;20000;-80
2024/04/09 00:46:10;;;;;;;1.27;0.40;;;10.50;1.00;;;;;;5372844;26;20023;-80
2024/04/09 00:48:37;;;;;;;1.65;0.60;;;10.50;1.00;;;;;;5342990;26;20000;-79
2024/04/09 00:51:05;;;;;;;0.68;0.30;;;10.50;1.00;;;;;;5367161;26;20005;-79
2024/04/09 00:53:33;;;;;;;1.50;0.60;;;10.50;1.00;;;;;;5338394;26;20356;-80
2024/04/09 00:56:01;;;;;;;1.13;0.50;;;10.50;1.00;;;;;;5367795;26;21058;-81
2024/04/09 00:58:28;;;;;;;1.05;0.50;;;10.40;1.00;;;;;;5368224;26;20359;-79
2024/04/09 01:00:56;;;;;;;2.25;0.63;;;10.40;1.00;;;;;;5369094;26;20016;-79
2024/04/09 01:03:24;;;;;;;1.17;0.60;;;10.40;1.00;;;;;;5367731;26;20011;-79
2024/04/09 01:05:52;;;;;;;0.63;0.50;;;10.30;1.00;;;;;;5367128;26;20020;-79
2024/04/09 01:08:20;;;;;;;0.95;0.50;;;10.30;1.00;;;;;;5370747;26;20012;-79
2024/04/09 01:10:48;;;;;;;1.88;0.57;;;10.40;1.00;;;;;;5342900;26;20016;-80
2024/04/09 01:13:15;;;;;;;2.03;0.75;;;10.30;1.00;;;;;;5371401;26;20000;-81
2024/04/09 01:15:42;;;;;;;0.52;0.32;;;10.30;1.00;;;;;;5368434;26;20000;-80
2024/04/09 01:18:09;;;;;;;1.52;0.60;;;10.40;1.00;;;;;;5367852;26;20026;-79
2024/04/09 01:20:37;;;;;;;0.73;0.38;;;10.30;1.00;;;;;;5366291;26;20008;-79
2024/04/09 01:23:04;;;;;;;0.93;0.40;;;10.30;1.00;;;;;;5368196;26;20000;-80
2024/04/09 01:25:31;;;;;;;1.52;0.50;;;10.30;1.00;;;;;;5367594;26;20091;-79
2024/04/09 01:27:58;;;;;;;2.25;0.73;;;10.20;1.00;;;;;;5352622;26;20086;-79
2024/04/09 01:33:25;;;;;;;1.42;0.60;;;10.10;1.00;;;;;;5238155;27;20059;-84
2024/04/09 01:35:52;;;;;;;1.27;0.68;;;10.00;1.00;;;;;;5237987;27;20003;-85
2024/04/09 01:38:20;;;;;;;1.13;0.68;;;10.00;1.00;;;;;;5238570;27;20018;-85
2024/04/09 01:40:47;;;;;;;1.67;0.73;;;10.00;1.00;;;;;;5212603;27;20003;-85
2024/04/09 01:43:15;;;;;;;0.82;0.43;;;9.90;1.00;;;;;;5239604;27;20007;-85
2024/04/09 01:45:43;;;;;;;1.80;1.02;;;9.90;1.00;;;;;;5239529;27;20085;-85
2024/04/09 01:48:11;;;;;;;1.80;0.60;;;9.90;1.00;;;;;;5212058;27;20011;-85
2024/04/09 01:50:38;;;;;;;1.15;0.70;;;9.80;1.00;;;;;;5211006;27;20783;-85
2024/04/09 01:53:07;;;;;;;1.02;0.57;;;9.80;1.00;;;;;;5240711;27;20011;-85
2024/04/09 01:55:34;;;;;;;2.47;0.70;;;9.80;1.00;;;;;;5183596;27;20082;-84
2024/04/09 01:58:07;;;;;;;1.77;0.80;;;9.80;1.00;;;;;;5212231;27;20007;-84
2024/04/09 02:00:37;;;;;;;2.90;0.90;;;9.80;7.90;;;;;;5158342;27;19999;-85
2024/04/09 02:03:07;;;;;;;2.08;0.73;;;9.70;18.10;;;;;;5184179;27;20003;-84
2024/04/09 02:05:37;;;;;;;2.15;0.60;;;9.70;28.30;;;;;;5184686;27;20141;-86
2024/04/09 02:08:05;;;;;;;1.15;0.60;;;9.70;46.10;;;;;;5183885;27;20521;-84
2024/04/09 02:10:33;;;;;;;1.10;0.50;;;9.70;55.90;;;;;;5183159;27;20443;-85
2024/04/09 02:13:00;;;;;;;2.05;0.70;;;9.60;56.90;;;;;;5183430;27;20350;-85
2024/04/09 02:15:28;;;;;;;1.70;0.88;;;9.60;63.60;;;;;;5210584;27;20013;-85
2024/04/09 02:17:55;;;;;;;2.08;0.68;;;9.70;74.40;;;;;;5210371;27;20018;-85
2024/04/09 02:20:23;;;;;;;1.35;0.60;;;9.70;79.80;;;;;;5155366;27;20015;-85
2024/04/09 02:22:50;;;;;;;1.48;0.60;;;9.70;94.90;;;;;;5155127;27;20007;-86
2024/04/09 02:25:18;;;;;;;1.75;0.60;;;9.70;99.90;;;;;;5209104;27;20479;-85
2024/04/09 02:27:47;;;;;;;1.73;0.65;;;9.60;99.90;;;;;;5182032;27;20150;-86
2024/04/09 02:30:17;;;;;;;1.90;0.50;;;9.60;99.90;;;;;;5183393;27;20334;-85
2024/04/09 02:32:45;;;;;;;1.75;0.93;;;9.60;99.90;;;;;;5154470;27;20081;-85
2024/04/09 02:35:12;;;;;;;1.58;0.70;;;9.50;99.90;;;;;;5182992;27;20464;-85
2024/04/09 02:37:41;;;;;;;0.80;0.50;;;9.50;99.90;;;;;;5182279;27;19999;-84
2024/04/09 02:40:15;;;;;;;1.10;0.40;;;9.60;99.90;;;;;;5208779;27;20408;-86
2024/04/09 02:42:43;;;;;;;2.40;0.60;;;9.60;99.90;;;;;;5185304;27;20034;-85
2024/04/09 02:45:10;;;;;;;2.08;0.50;;;9.60;99.90;;;;;;5237598;27;20030;-85
2024/04/09 02:47:39;;;;;;;1.27;0.40;;;9.60;99.90;;;;;;5208999;27;20017;-84
2024/04/09 02:50:06;;;;;;;1.05;0.40;;;9.60;99.90;;;;;;5182832;27;20021;-84
2024/04/09 02:52:33;;;;;;;1.55;0.50;;;9.60;99.90;;;;;;5238736;27;20443;-85
2024/04/09 02:55:02;;;;;;;0.70;0.38;;;9.70;99.90;;;;;;5182545;27;20007;-85
2024/04/09 02:57:32;;;;;;;1.35;0.63;;;9.70;1.00;;;;;;5210292;27;20044;-85
2024/04/09 02:59:59;;;;;;;1.13;0.40;;;9.70;1.00;;;;;;5210770;27;20078;-85
2024/04/09 03:02:26;;;;;;;2.05;0.40;;;9.60;70.10;;;;;;5182129;27;20017;-86
2024/04/09 03:04:55;;;;;;;0.88;0.38;;;9.60;99.90;;;;;;5183215;27;20011;-85
2024/04/09 03:07:22;;;;;;;1.30;0.68;;;9.70;99.90;;;;;;5156491;27;20021;-85
2024/04/09 03:09:50;;;;;;;1.08;0.40;;;9.60;99.90;;;;;;5155910;27;20086;-85
2024/04/09 03:12:18;;;;;;;0.95;0.50;;;9.60;99.90;;;;;;5210047;27;20078;-85
2024/04/09 03:14:45;;;;;;;0.80;0.38;;;9.60;1.00;;;;;;5210426;27;20756;-84
2024/04/09 03:17:12;;;;;;;0.57;0.47;;;9.60;1.00;;;;;;5182916;27;20423;-86
2024/04/09 03:19:39;;;;;;;1.33;0.40;;;9.50;99.90;;;;;;5209865;27;20011;-85
2024/04/09 03:22:07;;;;;;;0.90;0.52;;;9.50;99.90;;;;;;5237833;27;20397;-85
2024/04/09 03:24:34;;;;;;;0.50;0.30;;;9.50;99.90;;;;;;5209334;27;20026;-85
2024/04/09 03:27:05;;;;;;;1.83;0.60;;;9.50;99.90;;;;;;5182924;27;20115;-85
2024/04/09 03:29:33;;;;;;;0.95;0.40;;;9.50;99.90;;;;;;5209368;27;20051;-85
2024/04/09 03:32:02;;;;;;;0.60;0.38;;;9.50;99.90;;;;;;5209115;27;20030;-85
2024/04/09 03:34:33;;;;;;;0.30;0.30;;;9.50;99.90;;;;;;5152522;27;20004;-86
2024/04/09 03:37:01;;;;;;;0.40;0.30;;;9.60;99.90;;;;;;5150388;27;20022;-84
2024/04/09 03:39:28;;;;;;;0.30;0.30;;;9.60;99.90;;;;;;5205227;27;20086;-84
2024/04/09 03:41:55;;;;;;;1.00;0.40;;;9.60;99.90;;;;;;5123139;27;20026;-85
2024/04/09 03:44:22;;;;;;;0.35;0.30;;;9.60;99.90;;;;;;5203828;27;20003;-85
2024/04/09 03:46:48;;;;;;;0.85;0.32;;;9.60;99.90;;;;;;5181932;27;20015;-85
2024/04/09 03:49:16;;;;;;;0.85;0.40;;;9.70;99.90;;;;;;5181530;27;20003;-85
2024/04/09 03:51:44;;;;;;;1.05;0.60;;;9.70;99.90;;;;;;5182179;27;20008;-85
2024/04/09 03:54:14;;;;;;;1.63;0.80;;;9.70;99.90;;;;;;5182949;27;20010;-85
2024/04/09 03:56:42;;;;;;;0.52;0.30;;;9.70;73.60;;;;;;5209201;27;20025;-85
2024/04/09 03:59:10;;;;;;;1.17;0.50;;;9.80;21.30;;;;;;5209397;27;19999;-85
2024/04/09 04:01:37;;;;;;;0.80;0.50;;;9.80;1.00;;;;;;5209849;27;20018;-86
2024/04/09 04:04:06;;;;;;;1.27;0.60;;;9.80;1.00;;;;;;5182922;27;20073;-83
2024/04/09 04:06:34;;;;;;;2.03;0.80;;;9.80;1.00;;;;;;5154378;27;20022;-84
2024/04/09 04:09:03;;;;;;;1.05;0.50;;;9.70;99.90;;;;;;5154769;27;20117;-85
2024/04/09 04:11:31;;;;;;;1.73;0.52;;;9.80;99.90;;;;;;5236353;27;20021;-85
2024/04/09 04:13:59;;;;;;;0.70;0.30;;;9.80;99.90;;;;;;5208209;27;20007;-85
2024/04/09 04:16:26;;;;;;;1.50;0.60;;;9.80;99.90;;;;;;5208272;27;20085;-84
2024/04/09 04:19:00;;;;;;;2.92;1.00;;;9.80;96.40;;;;;;5210119;27;20015;-90
2024/04/09 04:21:35;;;;;;;2.22;1.00;;;9.80;22.60;;;;;;5240039;27;20007;-91
2024/04/09 04:24:02;;;;;;;1.73;0.65;;;9.80;44.30;;;;;;5211335;27;20029;-90
2024/04/09 04:26:35;;;;;;;1.80;0.70;;;9.80;1.00;;;;;;5157205;27;20011;-90
2024/04/09 04:29:12;;;;;;;1.67;0.55;;;9.80;1.00;;;;;;5241212;27;20003;-90
2024/04/09 04:31:39;;;;;;;1.88;0.88;;;9.80;1.00;;;;;;5239750;27;20014;-91
2024/04/09 04:34:06;;;;;;;4.13;0.60;;;9.80;1.00;;;;;;5211691;27;20007;-91
2024/04/09 04:36:33;;;;;;;2.35;0.50;;;9.80;1.00;;;;;;5156632;27;20003;-90
2024/04/09 04:39:00;;;;;;;2.78;1.02;;;9.80;1.00;;;;;;5183024;27;20025;-88
2024/04/09 04:41:27;;;;;;;2.55;0.70;;;9.80;1.00;;;;;;5183116;27;19999;-90
2024/04/09 04:43:56;;;;;;;1.38;0.85;;;9.80;1.00;;;;;;5183145;27;20003;-89
2024/04/09 04:46:28;;;;;;;1.73;0.60;;;9.80;1.00;;;;;;5138052;27;20074;-89
2024/04/09 04:49:05;;;;;;;1.30;0.50;;;9.80;99.90;;;;;;5176127;27;20022;-91
2024/04/09 04:51:34;;;;;;;2.35;0.75;;;9.90;99.90;;;;;;5171049;27;20895;-90
2024/04/09 04:54:01;;;;;;;1.27;0.75;;;9.90;99.90;;;;;;5180494;27;20063;-92
2024/04/09 04:56:30;;;;;;;0.73;0.50;;;9.90;99.90;;;;;;5171331;27;19999;-92
2024/04/09 04:58:59;;;;;;;1.33;0.73;;;10.00;99.90;;;;;;5168329;27;20334;-93
2024/04/09 05:01:32;;;;;;;1.08;0.50;;;10.00;99.90;;;;;;5211143;27;20022;-90
2024/04/09 05:04:01;;;;;;;3.42;0.98;;;10.00;99.90;;;;;;5157823;27;20078;-79
2024/04/09 05:06:28;;;;;;;1.85;1.00;;;10.00;99.90;;;;;;5163782;27;20008;-78
2024/04/09 05:08:55;;;;;;;1.92;0.70;;;10.00;99.90;;;;;;5169645;27;20020;-76
2024/04/09 05:11:22;;;;;;;1.67;0.80;;;10.00;99.90;;;;;;5227987;27;20007;-77
2024/04/09 05:13:52;;;;;;;1.55;0.70;;;10.00;99.90;;;;;;5194142;27;20019;-78
2024/04/09 05:16:20;;;;;;;1.38;0.60;;;10.00;99.90;;;;;;5156309;27;20015;-88
2024/04/09 05:18:48;;;;;;;1.48;0.65;;;10.10;99.90;;;;;;5124072;27;20008;-88
2024/04/09 05:21:16;;;;;;;1.67;0.65;;;10.10;99.90;;;;;;5206649;27;20546;-88
2024/04/09 05:23:43;;;;;;;0.88;0.50;;;10.10;99.90;;;;;;5206809;27;20086;-87
2024/04/09 05:26:12;;;;;;;1.70;0.65;;;10.10;99.90;;;;;;5180088;27;20082;-88
2024/04/09 05:28:40;;;;;;;0.93;0.40;;;10.00;99.90;;;;;;5175666;27;20044;-87
2024/04/09 05:31:07;;;;;;;1.77;0.63;;;10.00;99.90;;;;;;5217508;27;20015;-86
2024/04/09 05:33:34;;;;;;;1.17;0.43;;;10.00;99.90;;;;;;5200455;27;20011;-83
2024/04/09 05:36:03;;;;;;;1.83;0.75;;;10.10;99.90;;;;;;5215449;27;20006;-84
2024/04/09 05:38:30;;;;;;;1.30;0.77;;;10.00;99.90;;;;;;5203494;27;20748;-85
2024/04/09 05:40:58;;;;;;;0.60;0.40;;;10.00;99.90;;;;;;5161992;27;20007;-87
2024/04/09 05:43:25;;;;;;;2.08;0.70;;;10.00;99.90;;;;;;5168811;27;20116;-86
2024/04/09 05:45:52;;;;;;;3.83;0.90;;;10.00;99.90;;;;;;5179751;27;20027;-87
2024/04/09 05:48:19;;;;;;;2.72;0.90;;;10.00;99.90;;;;;;5177318;27;20007;-86
2024/04/09 05:50:47;;;;;;;2.25;0.82;;;10.00;99.90;;;;;;5171035;27;20003;-86
2024/04/09 05:53:21;;;;;;;1.17;0.57;;;10.00;99.90;;;;;;5185246;27;20008;-85
2024/04/09 05:55:55;;;;;;;0.68;0.50;;;10.10;99.90;;;;;;5249042;27;20003;-85
2024/04/09 05:58:23;;;;;;;1.67;0.80;;;10.00;99.90;;;;;;5177682;27;20003;-87
2024/04/09 06:00:53;;;;;;;0.85;0.60;;;10.00;99.90;;;;;;5195657;27;20018;-86
2024/04/09 06:03:20;;;;;;;2.20;0.70;;;10.00;99.90;;;;;;5148344;27;20086;-86
2024/04/09 06:05:51;;;;;;;1.65;0.70;;;9.90;99.90;;;;;;5160269;27;20019;-87
2024/04/09 06:08:18;;;;;;;1.77;0.50;;;9.90;99.90;;;;;;5212575;27;20015;-87
2024/04/09 06:10:45;;;;;;;0.93;0.50;;;9.90;99.90;;;;;;5151897;27;20010;-86
2024/04/09 06:13:14;;;;;;;2.38;0.65;;;9.80;99.90;;;;;;5233406;27;20003;-89
2024/04/09 06:15:43;;;;;;;2.53;0.55;;;9.70;1.00;;;;;;5173999;27;20094;-87
2024/04/09 06:18:15;;;;;;;0.98;0.55;;;9.60;1.00;;;;;;5182901;27;20003;-89
2024/04/09 06:20:45;;;;;;;1.17;0.40;;;9.60;99.90;;;;;;5156153;27;20079;-88
2024/04/09 06:23:12;;;;;;;0.93;0.55;;;9.50;99.90;;;;;;5237991;27;20074;-88
2024/04/09 06:25:52;;;;;;;1.17;0.60;;;9.50;99.90;;;;;;5179256;27;20007;-87
2024/04/09 06:28:20;;;;;;;2.78;0.68;;;9.40;99.90;;;;;;5179537;27;20323;-86
2024/04/09 06:30:47;;;;;;;1.15;0.50;;;9.40;1.00;;;;;;5206638;27;20762;-88
2024/04/09 06:33:22;;;;;;;1.00;0.55;;;9.30;1.00;;;;;;5209246;27;20011;-87
2024/04/09 06:35:50;;;;;;;0.77;0.43;;;9.30;96.50;;;;;;5182291;27;20019;-88
2024/04/09 06:38:17;;;;;;;0.82;0.40;;;9.30;99.90;;;;;;5181891;27;20018;-88
2024/04/09 06:40:46;;;;;;;0.68;0.38;;;9.20;1.00;;;;;;5182756;27;20077;-87
2024/04/09 06:43:13;;;;;;;0.93;0.50;;;9.20;39.50;;;;;;5206140;27;20007;-87
2024/04/09 06:45:42;;;;;;;1.02;0.30;;;9.20;99.90;;;;;;5206167;27;20043;-86
2024/04/09 06:48:15;;;;;;;1.52;0.40;;;9.10;99.90;;;;;;5209468;27;20006;-86
2024/04/09 06:50:45;;;;;;;0.50;0.30;;;9.10;99.90;;;;;;5209428;27;20003;-85
2024/04/09 06:53:23;;;;;;;0.73;0.30;;;9.10;1.00;;;;;;5187809;27;20003;-87
2024/04/09 06:55:52;;;;;;;0.43;0.30;;;9.00;52.00;;;;;;5182139;27;20027;-86
2024/04/09 06:58:20;;;;;;;0.50;0.20;;;9.00;99.90;;;;;;5238914;27;20041;-87
2024/04/09 07:00:55;;;;;;;0.40;0.20;;;9.00;99.90;;;;;;5181632;27;20039;-87
2024/04/09 07:03:24;;;;;;;0.30;0.30;;;9.00;99.90;;;;;;5191973;27;19999;-87
2024/04/09 07:05:51;;;;;;;1.02;0.28;;;9.00;99.90;;;;;;5182701;27;20529;-87
2024/04/09 07:08:22;;;;;;;0.20;0.20;;;9.00;1.00;;;;;;5209081;27;20010;-87
2024/04/09 07:11:09;;;;;;;0.10;0.10;;;9.00;99.90;;;;;;5209472;27;20086;-88
2024/04/09 07:13:41;;;;;;;0.15;0.15;;;9.10;1.00;;;;;;5209667;27;20007;-86
2024/04/09 07:16:11;;;;;;;0.20;0.20;;;9.10;1.00;;;;;;5238411;27;20017;-86
2024/04/09 07:18:49;;;;;;;0.28;0.20;;;9.10;99.90;;;;;;5208376;27;20019;-88
2024/04/09 07:21:17;;;;;;;0.20;0.20;;;9.10;99.90;;;;;;5238007;27;20007;-87
2024/04/09 07:23:46;;;;;;;0.43;0.30;;;9.20;99.90;;;;;;5238946;27;20031;-87
2024/04/09 07:26:22;;;;;;;0.35;0.30;;;9.10;98.10;;;;;;5238234;27;20007;-87
2024/04/09 07:28:49;;;;;;;1.20;0.20;;;9.20;1.00;;;;;;5238831;27;20081;-87
2024/04/09 07:31:16;;;;;;;0.75;0.20;;;9.10;1.00;;;;;;5206269;27;20012;-86
2024/04/09 07:33:46;;;;;;;0.30;0.20;;;9.10;1.00;;;;;;5160059;27;20007;-87
2024/04/09 07:36:13;;;;;;;0.43;0.30;;;9.10;99.90;;;;;;5181339;27;20105;-87
2024/04/09 07:38:41;;;;;;;0.22;0.13;;;9.10;99.90;;;;;;5208641;27;20014;-87
2024/04/09 07:41:08;;;;;;;0.47;0.20;;;9.00;1.00;;;;;;5181306;27;20941;-87
2024/04/09 07:43:36;;;;;;;0.88;0.20;;;9.00;58.00;;;;;;5204451;27;20081;-90
2024/04/09 07:46:08;;;;;;;0.52;0.30;;;8.90;26.50;;;;;;5156572;27;20021;-86
2024/04/09 07:48:35;;;;;;;0.40;0.30;;;8.90;99.90;;;;;;5178111;27;20003;-87
2024/04/09 07:51:04;;;;;;;0.22;0.22;;;8.90;99.90;;;;;;5151527;27;20018;-87
2024/04/09 07:53:38;;;;;;;0.50;0.35;;;8.80;99.90;;;;;;5177564;27;20002;-88
2024/04/09 07:56:09;;;;;;;1.00;0.35;;;8.80;1.00;;;;;;5170470;27;20015;-86
2024/04/09 07:58:36;;;;;;;1.50;0.30;;;8.70;1.00;;;;;;5145094;27;20019;-87
2024/04/09 08:01:05;;;;;;;0.75;0.45;;;8.80;1.00;;;;;;5183612;27;20019;-87
2024/04/09 08:03:34;;;;;;;0.47;0.35;;;8.80;99.90;;;;;;5215569;27;20019;-87
2024/04/09 08:06:06;;;;;;;1.98;0.43;;;8.80;99.90;;;;;;5183005;27;20878;-87
2024/04/09 08:08:34;;;;;;;0.65;0.50;;;8.80;99.90;;;;;;5199042;27;20018;-86
2024/04/09 08:11:11;;;;;;;;;;;8.80;81.00;;;;;;5175644;27;20427;-87
2024/04/09 08:13:41;;;;;;;0.88;0.30;;;8.90;49.40;;;;;;5225644;27;20339;-87
2024/04/09 08:16:10;;;;;;;1.45;0.40;;;8.80;1.00;;;;;;5228264;27;20081;-87
2024/04/09 08:18:37;;;;;;;0.55;0.28;;;8.80;1.00;;;;;;5231965;27;20079;-81
2024/04/09 08:21:05;;;;;;;0.73;0.35;;;8.90;99.90;;;;;;5188664;27;20828;-78
2024/04/09 08:23:32;;;;;;;1.05;0.30;;;8.90;99.90;;;;;;5160959;27;20018;-78
2024/04/09 08:25:59;;;;;;;0.20;0.20;;;8.90;99.90;;;;;;5191936;27;20781;-78
2024/04/09 08:28:26;;;;;;;0.68;0.30;;;8.90;99.90;;;;;;5213492;27;20075;-77
2024/04/09 08:30:54;;;;;;;0.30;0.30;;;8.90;99.90;;;;;;5179630;27;20047;-78
2024/04/09 08:33:21;;;;;;;0.45;0.30;;;8.90;99.90;;;;;;5160258;27;20056;-78
2024/04/09 08:35:49;;;;;;;0.30;0.20;;;9.00;99.90;;;;;;5178797;27;19999;-78
2024/04/09 08:38:17;;;;;;;0.20;0.20;;;9.00;99.90;;;;;;5191626;27;20008;-78
2024/04/09 08:40:44;;;;;;;0.32;0.20;;;9.00;99.90;;;;;;5214684;27;20013;-78
2024/04/09 08:43:11;;;;;;;0.30;0.30;;;9.00;99.90;;;;;;5174272;27;20004;-79
2024/04/09 08:45:38;;;;;;;0.32;0.30;;;8.90;99.90;;;;;;5117706;27;20036;-78
2024/04/09 08:48:06;;;;;;;0.15;0.15;;;9.00;99.90;;;;;;5144099;27;20039;-78
2024/04/09 08:50:34;;;;;;;0.52;0.30;;;8.90;99.90;;;;;;5167718;27;20019;-78
2024/04/09 08:53:02;;;;;;;0.20;0.20;;;8.90;99.90;;;;;;5175499;27;20007;-78
2024/04/09 08:55:30;;;;;;;0.22;0.20;;;9.00;99.30;;;;;;5202057;27;20429;-77
2024/04/09 08:57:57;;;;;;;0.10;0.10;;;9.00;93.80;;;;;;5172565;27;20017;-78
2024/04/09 09:00:25;;;;;;;0.15;0.15;;;9.10;86.70;;;;;;5172821;27;20019;-78
2024/04/09 09:02:52;;;;;;;0.25;0.20;;;9.10;72.50;;;;;;5202683;27;20089;-78
2024/04/09 09:05:22;;;;;;;0.25;0.20;;;9.20;62.90;;;;;;5203475;27;20011;-77
2024/04/09 09:08:02;;;;;;;0.20;0.20;;;9.20;58.00;;;;;;5173327;27;20410;-78
2024/04/09 09:10:33;;;;;;;0.25;0.22;;;9.20;51.40;;;;;;5200002;27;20045;-78
2024/04/09 09:13:02;;;;;;;0.20;0.20;;;9.20;53.00;;;;;;5200069;27;20007;-78
2024/04/09 09:15:29;;;;;;;0.30;0.30;;;9.20;51.00;;;;;;5172624;27;20825;-78
2024/04/09 09:17:56;;;;;;;0.40;0.28;;;9.30;45.80;;;;;;5173200;27;20083;-78
2024/04/09 09:20:24;;;;;;;0.32;0.10;;;9.30;47.30;;;;;;5202963;27;20007;-78
2024/04/09 09:22:52;;;;;;;0.20;0.20;;;9.30;35.10;;;;;;5148103;27;20379;-78
2024/04/09 09:25:20;;;;;;;0.50;0.20;;;9.30;32.00;;;;;;5145692;27;20003;-78
2024/04/09 09:27:48;;;;;;;0.22;0.20;;;9.30;32.50;;;;;;5199770;27;20019;-78
2024/04/09 09:30:15;;;;;;;0.17;0.17;;;9.20;19.40;;;;;;5176875;27;20007;-78
2024/04/09 09:32:46;;;;;;;0.32;0.20;;;9.10;12.40;;;;;;5192626;27;20079;-78
2024/04/09 09:35:17;;;;;;;0.10;0.10;;;9.10;9.60;;;;;;5170758;27;20019;-78
2024/04/09 09:37:49;;;;;;;0.20;0.20;;;9.10;15.30;;;;;;5193438;27;20010;-79
2024/04/09 09:40:16;;;;;;;0.10;0.10;;;9.20;9.60;;;;;;5210714;27;20014;-78
2024/04/09 09:42:47;;;;;;;0.13;0.10;;;9.20;7.10;;;;;;5174516;27;20079;-78
2024/04/09 09:45:14;;;;;;;0.17;0.17;;;9.30;12.40;;;;;;5149799;27;20003;-78
2024/04/09 09:47:41;;;;;;;0.28;0.20;;;9.40;11.90;;;;;;5202855;27;20063;-78
2024/04/09 09:50:08;;;;;;;0.10;0.10;;;9.30;15.90;;;;;;5168881;27;20015;-79
2024/04/09 09:52:44;;;;;;;0.15;0.15;;;9.30;19.10;;;;;;5184964;27;20018;-78
2024/04/09 09:55:11;;;;;;;0.10;0.10;;;9.30;20.20;;;;;;5202591;27;20403;-78
2024/04/09 09:57:42;;;;;;;0.20;0.20;;;9.30;18.50;;;;;;5176164;27;20035;-78
2024/04/09 10:00:11;;;;;;;0.32;0.20;;;9.40;15.80;;;;;;5149543;27;20312;-78
2024/04/09 10:02:42;;;;;;;0.20;0.20;;;9.40;13.30;;;;;;5231749;27;20081;-78
2024/04/09 10:05:17;;;;;;;0.10;0.10;;;9.40;13.00;;;;;;5178817;27;20070;-78
2024/04/09 10:07:48;;;;;;;0.15;0.15;;;9.50;18.80;;;;;;5171901;27;20439;-78
2024/04/09 10:10:29;;;;;;;0.20;0.20;;;9.40;23.60;;;;;;5145277;27;19999;-79
2024/04/09 10:13:06;;;;;;;0.38;0.20;;;9.40;37.40;;;;;;5175501;27;20091;-78
2024/04/09 10:15:34;;;;;;;0.20;0.20;;;9.30;31.90;;;;;;5205370;27;20023;-78
2024/04/09 10:18:04;;;;;;;0.43;0.20;;;9.20;40.90;;;;;;5199092;27;20006;-78
2024/04/09 10:20:36;;;;;;;0.20;0.20;;;9.30;40.40;;;;;;5198213;27;20043;-77
2024/04/09 10:23:04;;;;;;;0.20;0.20;;;9.30;31.60;;;;;;5175496;27;20066;-77
2024/04/09 10:25:42;;;;;;;0.25;0.20;;;9.40;23.60;;;;;;5202878;27;20011;-78
2024/04/09 10:28:10;;;;;;;0.30;0.30;;;9.50;17.30;;;;;;5148801;27;20013;-78
2024/04/09 10:30:37;;;;;;;0.32;0.30;;;9.60;8.60;;;;;;5175640;27;20019;-78
2024/04/09 10:33:05;;;;;;;0.30;0.20;;;9.70;6.50;;;;;;5175197;27;20350;-79
2024/04/09 10:35:33;;;;;;;0.15;0.10;;;9.80;1.00;;;;;;5175410;27;20021;-78
2024/04/09 10:38:06;;;;;;;0.40;0.30;;;9.90;1.00;;;;;;5148338;27;20003;-78
2024/04/09 10:40:34;;;;;;;0.10;0.10;;;10.00;1.00;;;;;;5175479;27;20055;-78
2024/04/09 10:43:05;;;;;;;0.32;0.20;;;10.00;1.00;;;;;;5171416;27;20003;-78
2024/04/09 10:45:32;;;;;;;0.32;0.10;;;10.10;1.00;;;;;;5169132;27;20368;-78
2024/04/09 10:48:07;;;;;;;0.40;0.20;;;10.10;1.00;;;;;;5145834;27;20083;-78
2024/04/09 10:50:34;;;;;;;0.30;0.30;;;10.20;1.00;;;;;;5156429;27;20078;-79
2024/04/09 10:53:02;;;;;;;0.20;0.20;;;10.20;1.00;;;;;;5169426;27;20007;-78
2024/04/09 10:55:29;;;;;;;2.15;0.32;;;10.20;1.00;;;;;;5174686;27;20925;-78
2024/04/09 10:57:56;;;;;;;0.90;0.28;;;10.10;1.00;;;;;;5174887;27;20019;-78
2024/04/09 11:00:24;;;;;;;0.20;0.20;;;10.10;1.00;;;;;;5174882;27;20003;-78
2024/04/09 11:02:51;;;;;;;0.10;0.10;;;10.00;18.60;;;;;;5201315;27;20160;-77
2024/04/09 11:05:18;;;;;;;0.20;0.20;;;10.00;16.20;;;;;;5201804;27;20912;-77
2024/04/09 11:07:46;;;;;;;0.70;0.10;;;10.10;22.60;;;;;;5147879;27;20018;-78
2024/04/09 11:10:18;;;;;;;0.13;0.13;;;10.20;18.40;;;;;;5200354;27;20703;-77
2024/04/09 11:12:48;;;;;;;0.10;0.10;;;10.10;15.00;;;;;;5170669;27;20007;-78
2024/04/09 11:15:15;;;;;;;0.20;0.20;;;10.00;16.70;;;;;;5200163;27;20011;-78
2024/04/09 11:17:42;;;;;;;0.15;0.15;;;10.10;16.20;;;;;;5175072;27;20662;-78
2024/04/09 11:20:14;;;;;;;0.20;0.20;;;10.20;11.90;;;;;;5145363;27;20010;-78
2024/04/09 11:22:41;;;;;;;0.63;0.30;;;10.20;10.60;;;;;;5197051;27;20003;-78
2024/04/09 11:25:11;;;;;;;0.73;0.28;;;10.20;7.70;;;;;;5226767;27;20023;-78
2024/04/09 11:27:39;;;;;;;0.15;0.13;;;10.40;8.60;;;;;;5197445;27;20058;-78
2024/04/09 11:30:11;;;;;;;0.40;0.20;;;10.40;4.30;;;;;;5198042;27;20019;-78
2024/04/09 11:32:39;;;;;;;0.40;0.35;;;10.50;3.20;;;;;;5174729;27;20006;-78
2024/04/09 11:35:17;;;;;;;0.20;0.20;;;10.50;1.80;;;;;;5148186;27;20772;-79
2024/04/09 11:37:52;;;;;;;0.57;0.35;;;10.60;1.00;;;;;;5174912;27;20014;-78
2024/04/09 11:40:22;;;;;;;0.30;0.30;;;10.60;8.60;;;;;;5165760;27;19999;-78
2024/04/09 11:42:50;;;;;;;0.40;0.30;;;10.60;17.10;;;;;;5178191;27;20003;-78
2024/04/09 11:45:24;;;;;;;0.15;0.15;;;10.40;19.00;;;;;;5199986;27;20026;-78
2024/04/09 11:47:52;;;;;;;0.60;0.30;;;10.30;34.20;;;;;;5201761;27;20007;-78
2024/04/09 11:50:19;;;;;;;0.30;0.30;;;10.20;46.20;;;;;;5230101;27;20301;-78
2024/04/09 11:52:46;;;;;;;0.73;0.30;;;10.10;76.80;;;;;;5173612;27;20592;-78
2024/04/09 11:55:13;;;;;;;0.20;0.20;;;10.10;94.10;;;;;;5201027;27;20011;-79
2024/04/09 11:57:46;;;;;;;0.55;0.30;;;10.00;99.90;;;;;;5202082;27;20020;-78
2024/04/09 12:00:13;;;;;;;0.20;0.20;;;10.10;99.90;;;;;;5202000;27;20007;-79
2024/04/09 12:02:41;;;;;;;0.20;0.20;;;10.20;99.90;;;;;;5174091;27;20296;-79
2024/04/09 12:05:09;;;;;;;0.30;0.30;;;10.30;99.90;;;;;;5176050;27;20007;-78
2024/04/09 12:07:36;;;;;;;0.20;0.20;;;10.40;99.90;;;;;;5150460;27;20013;-78
2024/04/09 12:10:05;;;;;;;0.60;0.30;;;10.40;99.90;;;;;;5176584;27;20490;-79
2024/04/09 12:12:32;;;;;;;0.73;0.40;;;10.30;99.90;;;;;;5177177;27;20015;-83
2024/04/09 12:14:59;;;;;;;0.68;0.40;;;10.30;99.90;;;;;;5233581;27;20565;-78
2024/04/09 12:17:27;;;;;;;0.30;0.30;;;10.20;99.90;;;;;;5177161;27;20396;-78
2024/04/09 12:19:54;;;;;;;1.13;0.50;;;10.10;99.90;;;;;;5150534;27;20003;-79
2024/04/09 12:22:22;;;;;;;0.30;0.30;;;9.90;99.90;;;;;;5202575;27;20050;-79
2024/04/09 12:24:52;;;;;;;1.35;0.55;;;10.00;99.90;;;;;;5227915;27;20011;-77
2024/04/09 12:27:19;;;;;;;0.30;0.30;;;10.00;99.90;;;;;;5199644;27;19999;-78
2024/04/09 12:29:46;;;;;;;0.40;0.22;;;10.20;99.90;;;;;;5169752;27;20036;-80
2024/04/09 12:32:13;;;;;;;1.60;0.50;;;10.30;99.90;;;;;;5221062;27;20010;-79
2024/04/09 12:34:41;;;;;;;0.75;0.43;;;10.40;99.90;;;;;;5166894;27;20030;-78
2024/04/09 12:37:08;;;;;;;0.95;0.50;;;10.50;99.90;;;;;;5184112;27;20019;-77
2024/04/09 12:39:35;;;;;;;1.48;0.80;;;10.60;99.90;;;;;;5136965;27;20185;-78
2024/04/09 12:42:02;;;;;;;0.85;0.47;;;10.50;87.00;;;;;;5167755;27;20058;-77
2024/04/09 12:44:29;;;;;;;0.82;0.50;;;10.50;93.00;;;;;;5199765;27;20022;-77
2024/04/09 12:46:56;;;;;;;0.90;0.50;;;10.60;91.10;;;;;;5159682;27;20086;-78
2024/04/09 12:49:29;;;;;;;1.63;0.90;;;10.60;32.70;;;;;;5154838;27;20463;-78
2024/04/09 12:52:09;;;;;;;1.15;0.50;;;10.60;14.20;;;;;;5167012;27;20932;-76
2024/04/09 12:54:37;;;;;;;0.95;0.45;;;10.70;2.60;;;;;;5172150;27;20019;-78
2024/04/09 12:57:04;;;;;;;0.50;0.30;;;10.80;2.30;;;;;;5145782;27;20027;-77
2024/04/09 12:59:34;;;;;;;0.70;0.40;;;11.00;1.00;;;;;;5198735;27;20111;-77
2024/04/09 13:02:21;;;;;;;1.65;0.70;;;11.20;1.00;;;;;;5178258;27;20061;-77
2024/04/09 13:04:49;;;;;;;1.05;0.68;;;11.40;1.00;;;;;;5180240;27;20004;-77
2024/04/09 13:07:17;;;;;;;0.75;0.50;;;11.50;1.00;;;;;;5150442;27;20022;-77
2024/04/09 13:09:44;;;;;;;0.88;0.60;;;11.70;1.00;;;;;;5160740;27;20008;-77